Time,TemperatureF,DewpointF,PressureIn,WindDirection,WindDirectionDegrees,WindSpeedMPH,WindSpeedGustMPH,Humidity,HourlyPrecipIn,Conditions,Clouds,dailyrainin,SoftwareType,DateUTC
2013-12-26 00:01:00,27.3,22.8,30.28,SE,129,0.0,0.0,83,0.00,,,0.00,WUHU216DAVISVP2,2013-12-26 05:01:00,
2013-12-26 00:02:00,27.3,22.8,30.29,SE,129,0.0,0.0,83,0.00,,,0.00,WUHU216DAVISVP2,2013-12-26 05:02:00,
2013-12-26 00:07:00,27.4,23.2,30.29,SE,129,0.0,0.0,84,0.00,,,0.00,WUHU216DAVISVP2,2013-12-26 05:07:00,
2013-12-26 00:12:00,27.4,23.2,30.28,SE,129,0.0,0.0,84,0.00,,,0.00,WUHU216DAVISVP2,2013-12-26 05:12:00,
2013-12-26 00:17:00,27.4,23.2,30.29,SE,131,0.0,0.0,84,0.00,,,0.00,WUHU216DAVISVP2,2013-12-26 05:17:00,
2013-12-26 00:22:00,27.5,23.3,30.28,SE,130,0.0,0.0,84,0.00,,,0.00,WUHU216DAVISVP2,2013-12-26 05:22:00,
2013-12-26 00:27:00,27.6,23.1,30.28,SE,129,0.0,1.0,83,0.00,,,0.00,WUHU216DAVISVP2,2013-12-26 05:27:00,
2013-12-26 00:32:00,27.7,23.8,30.28,WNW,291,1.2,2.0,85,0.00,,,0.00,WUHU216DAVISVP2,2013-12-26 05:32:00,
2013-12-26 00:37:00,27.7,24.1,30.28,WNW,294,1.0,2.0,86,0.00,,,0.00,WUHU216DAVISVP2,2013-12-26 05:37:00,
2013-12-26 00:42:00,27.7,24.1,30.28,WNW,294,0.0,2.0,86,0.00,,,0.00,WUHU216DAVISVP2,2013-12-26 05:42:00,
2013-12-26 00:47:00,27.7,23.8,30.28,WNW,294,0.0,2.0,85,0.00,,,0.00,WUHU216DAVISVP2,2013-12-26 05:47:00,
2013-12-26 00:52:00,27.7,23.5,30.28,WNW,294,0.0,1.0,84,0.00,,,0.00,WUHU216DAVISVP2,2013-12-26 05:52:00,
2013-12-26 00:57:00,27.8,23.9,30.28,WNW,294,0.0,1.0,85,0.00,,,0.00,WUHU216DAVISVP2,2013-12-26 05:57:00,
2013-12-26 01:02:00,27.8,24.1,30.28,WNW,294,0.0,1.0,86,0.00,,,0.00,WUHU216DAVISVP2,2013-12-26 06:02:00,
2013-12-26 01:07:00,27.7,24.0,30.27,WNW,294,0.0,1.0,86,0.00,,,0.00,WUHU216DAVISVP2,2013-12-26 06:07:00,
2013-12-26 01:12:00,27.7,23.8,30.27,WNW,294,0.0,0.0,85,0.00,,,0.00,WUHU216DAVISVP2,2013-12-26 06:12:00,
2013-12-26 01:17:00,27.8,24.2,30.27,WNW,294,0.0,0.0,86,0.00,,,0.00,WUHU216DAVISVP2,2013-12-26 06:17:00,
2013-12-26 01:22:00,27.8,24.1,30.27,WNW,294,0.0,0.0,86,0.00,,,0.00,WUHU216DAVISVP2,2013-12-26 06:22:00,
2013-12-26 01:27:00,27.8,24.1,30.26,WNW,294,0.0,0.0,86,0.00,,,0.00,WUHU216DAVISVP2,2013-12-26 06:27:00,
2013-12-26 01:32:00,27.8,23.9,30.26,WNW,294,0.0,0.0,85,0.00,,,0.00,WUHU216DAVISVP2,2013-12-26 06:32:00,
2013-12-26 01:37:00,27.9,24.0,30.26,WNW,294,0.0,0.0,85,0.00,,,0.00,WUHU216DAVISVP2,2013-12-26 06:37:00,
2013-12-26 01:42:00,27.9,24.0,30.26,WNW,294,0.0,0.0,85,0.00,,,0.00,WUHU216DAVISVP2,2013-12-26 06:42:00,
2013-12-26 01:47:00,27.9,24.0,30.25,WNW,294,0.0,0.0,85,0.00,,,0.00,WUHU216DAVISVP2,2013-12-26 06:47:00,
2013-12-26 01:52:00,28.0,24.1,30.26,WNW,294,1.0,1.0,85,0.00,,,0.00,WUHU216DAVISVP2,2013-12-26 06:52:00,
2013-12-26 01:57:00,28.1,24.1,30.25,WNW,294,0.0,1.0,85,0.00,,,0.00,WUHU216DAVISVP2,2013-12-26 06:57:00,
2013-12-26 02:02:00,28.2,24.5,30.26,WNW,294,0.0,1.0,86,0.00,,,0.00,WUHU216DAVISVP2,2013-12-26 07:02:00,
2013-12-26 02:07:00,28.2,24.5,30.26,WNW,294,0.0,1.0,86,0.00,,,0.00,WUHU216DAVISVP2,2013-12-26 07:07:00,
2013-12-26 02:12:00,28.1,24.4,30.25,WNW,294,0.0,1.0,86,0.00,,,0.00,WUHU216DAVISVP2,2013-12-26 07:12:00,
2013-12-26 02:17:00,28.1,24.4,30.26,WNW,294,0.0,1.0,86,0.00,,,0.00,WUHU216DAVISVP2,2013-12-26 07:17:00,
2013-12-26 02:22:00,28.2,24.8,30.26,WNW,294,0.0,1.0,87,0.00,,,0.00,WUHU216DAVISVP2,2013-12-26 07:22:00,
2013-12-26 02:27:00,28.2,24.5,30.25,WNW,294,1.0,1.0,86,0.00,,,0.00,WUHU216DAVISVP2,2013-12-26 07:27:00,
2013-12-26 02:32:00,28.2,24.0,30.26,WNW,294,0.0,1.0,84,0.00,,,0.00,WUHU216DAVISVP2,2013-12-26 07:32:00,
2013-12-26 02:37:00,28.3,24.3,30.26,WNW,294,0.0,1.0,85,0.00,,,0.00,WUHU216DAVISVP2,2013-12-26 07:37:00,
2013-12-26 02:42:00,28.3,24.6,30.26,WNW,294,0.0,1.0,86,0.00,,,0.00,WUHU216DAVISVP2,2013-12-26 07:42:00,
2013-12-26 02:47:00,28.3,24.1,30.26,WNW,294,0.0,0.0,84,0.00,,,0.00,WUHU216DAVISVP2,2013-12-26 07:47:00,
2013-12-26 02:52:00,28.3,24.3,30.26,WNW,294,1.0,1.0,85,0.00,,,0.00,WUHU216DAVISVP2,2013-12-26 07:52:00,
2013-12-26 02:57:00,28.3,24.3,30.26,WNW,294,0.0,1.0,85,0.00,,,0.00,WUHU216DAVISVP2,2013-12-26 07:57:00,
2013-12-26 03:02:00,28.4,24.7,30.26,WNW,294,0.0,1.0,86,0.00,,,0.00,WUHU216DAVISVP2,2013-12-26 08:02:00,
2013-12-26 03:07:00,28.4,24.7,30.26,WNW,294,0.0,1.0,86,0.00,,,0.00,WUHU216DAVISVP2,2013-12-26 08:07:00,
2013-12-26 03:12:00,28.5,24.6,30.26,WNW,294,0.0,0.0,85,0.00,,,0.00,WUHU216DAVISVP2,2013-12-26 08:12:00,
2013-12-26 03:17:00,28.5,24.5,30.26,NE,43,1.3,2.0,85,0.00,,,0.00,WUHU216DAVISVP2,2013-12-26 08:17:00,
2013-12-26 03:22:00,28.6,24.6,30.26,NE,47,0.0,2.0,85,0.00,,,0.00,WUHU216DAVISVP2,2013-12-26 08:22:00,
2013-12-26 03:27:00,28.7,25.0,30.26,NE,47,0.0,2.0,86,0.00,,,0.00,WUHU216DAVISVP2,2013-12-26 08:27:00,
2013-12-26 03:32:00,28.7,24.7,30.26,NE,47,0.0,1.0,85,0.00,,,0.00,WUHU216DAVISVP2,2013-12-26 08:32:00,
2013-12-26 03:37:00,28.8,24.8,30.26,NE,47,0.0,1.0,85,0.00,,,0.00,WUHU216DAVISVP2,2013-12-26 08:37:00,
2013-12-26 03:42:00,28.9,25.2,30.26,ENE,72,0.0,1.0,86,0.00,,,0.00,WUHU216DAVISVP2,2013-12-26 08:42:00,
2013-12-26 03:47:00,29.2,25.2,30.26,NE,46,1.0,1.0,85,0.00,,,0.00,WUHU216DAVISVP2,2013-12-26 08:47:00,
2013-12-26 03:52:00,29.8,25.5,30.26,NNW,348,1.4,3.0,84,0.00,,,0.00,WUHU216DAVISVP2,2013-12-26 08:52:00,
2013-12-26 03:57:00,31.1,25.4,30.27,WNW,292,1.1,3.0,79,0.00,,,0.00,WUHU216DAVISVP2,2013-12-26 08:57:00,
2013-12-26 04:02:00,31.8,25.4,30.27,WSW,238,2.0,3.0,77,0.00,,,0.00,WUHU216DAVISVP2,2013-12-26 09:02:00,
2013-12-26 04:07:00,32.9,25.6,30.26,ENE,67,1.0,5.0,74,0.00,,,0.00,WUHU216DAVISVP2,2013-12-26 09:07:00,
2013-12-26 04:12:00,33.6,25.6,30.27,WNW,287,3.0,8.0,72,0.00,,,0.00,WUHU216DAVISVP2,2013-12-26 09:12:00,
2013-12-26 04:17:00,34.2,26.2,30.27,WNW,293,5.0,8.0,72,0.00,,,0.00,WUHU216DAVISVP2,2013-12-26 09:17:00,
2013-12-26 04:22:00,34.5,25.8,30.27,WNW,298,4.0,9.0,70,0.00,,,0.00,WUHU216DAVISVP2,2013-12-26 09:22:00,
2013-12-26 04:27:00,34.3,25.9,30.28,WNW,292,2.3,9.0,71,0.00,,,0.00,WUHU216DAVISVP2,2013-12-26 09:27:00,
2013-12-26 04:32:00,34.0,26.3,30.28,West,280,1.9,9.0,73,0.00,,,0.00,WUHU216DAVISVP2,2013-12-26 09:32:00,
2013-12-26 04:37:00,33.8,26.4,30.28,West,276,3.7,11.0,74,0.00,,,0.00,WUHU216DAVISVP2,2013-12-26 09:37:00,
2013-12-26 04:42:00,33.6,26.9,30.28,WSW,247,4.0,11.0,76,0.00,,,0.00,WUHU216DAVISVP2,2013-12-26 09:42:00,
2013-12-26 04:47:00,33.4,27.0,30.28,WSW,247,1.1,10.0,77,0.00,,,0.00,WUHU216DAVISVP2,2013-12-26 09:47:00,
2013-12-26 04:52:00,33.2,27.4,30.27,West,270,0.0,10.0,79,0.00,,,0.00,WUHU216DAVISVP2,2013-12-26 09:52:00,
2013-12-26 04:57:00,33.0,27.5,30.27,East,97,1.0,9.0,80,0.00,,,0.00,WUHU216DAVISVP2,2013-12-26 09:57:00,
2013-12-26 05:02:00,32.8,27.6,30.27,ESE,105,1.4,3.0,81,0.00,,,0.00,WUHU216DAVISVP2,2013-12-26 10:02:00,
2013-12-26 05:07:00,32.6,27.4,30.26,SSW,209,1.0,2.0,81,0.00,,,0.00,WUHU216DAVISVP2,2013-12-26 10:07:00,
2013-12-26 05:12:00,32.5,27.6,30.26,South,174,0.0,2.0,82,0.00,,,0.00,WUHU216DAVISVP2,2013-12-26 10:12:00,
2013-12-26 05:17:00,32.4,27.5,30.27,South,174,0.0,2.0,82,0.00,,,0.00,WUHU216DAVISVP2,2013-12-26 10:17:00,
2013-12-26 05:22:00,32.2,27.3,30.27,South,175,0.0,1.0,82,0.00,,,0.00,WUHU216DAVISVP2,2013-12-26 10:22:00,
2013-12-26 05:27:00,32.2,27.6,30.27,South,174,0.0,1.0,83,0.00,,,0.00,WUHU216DAVISVP2,2013-12-26 10:27:00,
2013-12-26 05:32:00,32.2,27.6,30.27,South,174,0.0,1.0,83,0.00,,,0.00,WUHU216DAVISVP2,2013-12-26 10:32:00,
2013-12-26 05:37:00,32.0,27.4,30.26,South,174,0.0,1.0,83,0.00,,,0.00,WUHU216DAVISVP2,2013-12-26 10:37:00,
2013-12-26 05:42:00,31.9,27.6,30.26,South,174,0.0,1.0,84,0.00,,,0.00,WUHU216DAVISVP2,2013-12-26 10:42:00,
2013-12-26 05:47:00,31.8,27.8,30.26,South,174,0.0,1.0,85,0.00,,,0.00,WUHU216DAVISVP2,2013-12-26 10:47:00,
2013-12-26 05:52:00,31.6,27.6,30.25,South,174,0.0,1.0,85,0.00,,,0.00,WUHU216DAVISVP2,2013-12-26 10:52:00,
2013-12-26 05:57:00,31.5,27.8,30.25,South,174,0.0,0.0,86,0.00,,,0.00,WUHU216DAVISVP2,2013-12-26 10:57:00,
2013-12-26 06:02:00,31.4,27.7,30.25,South,174,0.0,0.0,86,0.00,,,0.00,WUHU216DAVISVP2,2013-12-26 11:02:00,
2013-12-26 06:07:00,31.4,27.7,30.25,South,174,0.0,0.0,86,0.00,,,0.00,WUHU216DAVISVP2,2013-12-26 11:07:00,
2013-12-26 06:12:00,31.3,27.9,30.25,SSE,153,0.0,1.0,87,0.00,,,0.00,WUHU216DAVISVP2,2013-12-26 11:12:00,
2013-12-26 06:17:00,31.3,27.9,30.26,SSE,149,0.0,1.0,87,0.00,,,0.00,WUHU216DAVISVP2,2013-12-26 11:17:00,
2013-12-26 06:22:00,31.3,27.9,30.26,SSE,150,0.0,1.0,87,0.00,,,0.00,WUHU216DAVISVP2,2013-12-26 11:22:00,
2013-12-26 06:27:00,31.3,27.9,30.26,SSE,149,0.0,1.0,87,0.00,,,0.00,WUHU216DAVISVP2,2013-12-26 11:27:00,
2013-12-26 06:32:00,31.2,27.8,30.26,SSE,149,0.0,0.0,87,0.00,,,0.00,WUHU216DAVISVP2,2013-12-26 11:32:00,
2013-12-26 06:37:00,31.1,27.6,30.26,WSW,240,1.0,1.0,87,0.00,,,0.00,WUHU216DAVISVP2,2013-12-26 11:37:00,
2013-12-26 06:42:00,31.0,27.8,30.26,WSW,240,0.0,1.0,88,0.00,,,0.00,WUHU216DAVISVP2,2013-12-26 11:42:00,
2013-12-26 06:47:00,30.9,27.7,30.26,WSW,240,0.0,1.0,88,0.00,,,0.00,WUHU216DAVISVP2,2013-12-26 11:47:00,
2013-12-26 06:52:00,30.8,27.6,30.26,WSW,240,0.0,1.0,88,0.00,,,0.00,WUHU216DAVISVP2,2013-12-26 11:52:00,
2013-12-26 06:57:00,30.8,27.6,30.27,WSW,240,0.0,1.0,88,0.00,,,0.00,WUHU216DAVISVP2,2013-12-26 11:57:00,
2013-12-26 07:02:00,30.7,27.8,30.26,East,83,1.8,2.0,89,0.00,,,0.00,WUHU216DAVISVP2,2013-12-26 12:02:00,
2013-12-26 07:07:00,30.7,27.8,30.26,WSW,245,0.0,2.0,89,0.00,,,0.00,WUHU216DAVISVP2,2013-12-26 12:07:00,
2013-12-26 07:12:00,30.8,27.6,30.26,East,85,0.0,2.0,88,0.00,,,0.00,WUHU216DAVISVP2,2013-12-26 12:12:00,
2013-12-26 07:17:00,30.9,27.5,30.26,East,84,1.0,2.0,87,0.00,,,0.00,WUHU216DAVISVP2,2013-12-26 12:17:00,
2013-12-26 07:22:00,31.0,27.3,30.26,East,88,1.0,2.0,86,0.00,,,0.00,WUHU216DAVISVP2,2013-12-26 12:22:00,
2013-12-26 07:27:00,31.7,27.1,30.26,West,267,1.6,3.0,83,0.00,,,0.00,WUHU216DAVISVP2,2013-12-26 12:27:00,
2013-12-26 07:32:00,31.6,27.0,30.27,WNW,293,0.0,3.0,83,0.00,,,0.00,WUHU216DAVISVP2,2013-12-26 12:32:00,
2013-12-26 07:37:00,31.6,26.7,30.27,East,93,1.0,3.0,82,0.00,,,0.00,WUHU216DAVISVP2,2013-12-26 12:37:00,
2013-12-26 07:42:00,32.0,26.8,30.28,ESE,111,1.1,3.0,81,0.00,,,0.00,WUHU216DAVISVP2,2013-12-26 12:42:00,
2013-12-26 07:47:00,32.7,27.2,30.28,WNW,287,1.0,4.0,80,0.00,,,0.00,WUHU216DAVISVP2,2013-12-26 12:47:00,
2013-12-26 07:52:00,33.3,26.9,30.28,WNW,290,2.0,4.0,77,0.00,,,0.00,WUHU216DAVISVP2,2013-12-26 12:52:00,
2013-12-26 07:57:00,34.1,27.0,30.28,WNW,284,1.6,4.0,75,0.00,,,0.00,WUHU216DAVISVP2,2013-12-26 12:57:00,
2013-12-26 07:59:00,34.3,26.6,30.28,WSW,245,4.0,6.0,73,0.00,,,0.00,WUHU216DAVISVP2,2013-12-26 12:59:00,
2013-12-26 08:04:00,35.2,26.4,30.29,West,260,4.5,8.0,70,0.00,,,0.00,WUHU216DAVISVP2,2013-12-26 13:04:00,
2013-12-26 08:09:00,35.7,26.6,30.29,WSW,239,5.0,9.0,69,0.00,,,0.00,WUHU216DAVISVP2,2013-12-26 13:09:00,
2013-12-26 08:14:00,35.9,26.4,30.29,WSW,257,2.0,9.0,68,0.00,,,0.00,WUHU216DAVISVP2,2013-12-26 13:14:00,
2013-12-26 08:19:00,36.1,26.3,30.29,WSW,255,7.0,9.0,67,0.00,,,0.00,WUHU216DAVISVP2,2013-12-26 13:19:00,
2013-12-26 08:24:00,36.3,26.0,30.30,SW,232,4.0,9.0,66,0.00,,,0.00,WUHU216DAVISVP2,2013-12-26 13:24:00,
2013-12-26 08:29:00,36.3,26.1,30.30,SW,235,8.0,11.0,66,0.00,,,0.00,WUHU216DAVISVP2,2013-12-26 13:29:00,
2013-12-26 08:34:00,36.4,26.2,30.30,West,262,6.0,11.0,66,0.00,,,0.00,WUHU216DAVISVP2,2013-12-26 13:34:00,
2013-12-26 08:39:00,36.4,26.2,30.30,WNW,282,6.0,10.0,66,0.00,,,0.00,WUHU216DAVISVP2,2013-12-26 13:39:00,
2013-12-26 08:44:00,36.5,25.9,30.31,WSW,253,4.2,10.0,65,0.00,,,0.00,WUHU216DAVISVP2,2013-12-26 13:44:00,
2013-12-26 08:49:00,36.5,25.9,30.31,West,259,3.1,10.0,65,0.00,,,0.00,WUHU216DAVISVP2,2013-12-26 13:49:00,
2013-12-26 08:54:00,36.6,26.0,30.31,WSW,240,8.0,10.0,65,0.00,,,0.00,WUHU216DAVISVP2,2013-12-26 13:54:00,
2013-12-26 08:59:00,36.6,26.0,30.31,West,261,7.2,14.0,65,0.00,,,0.00,WUHU216DAVISVP2,2013-12-26 13:59:00,
2013-12-26 09:04:00,36.7,26.0,30.31,WNW,291,6.0,14.0,65,0.00,,,0.00,WUHU216DAVISVP2,2013-12-26 14:04:00,
2013-12-26 09:09:00,36.6,25.9,30.32,West,260,8.0,14.0,65,0.00,,,0.00,WUHU216DAVISVP2,2013-12-26 14:09:00,
2013-12-26 09:14:00,36.7,26.0,30.32,West,267,2.9,14.0,65,0.00,,,0.00,WUHU216DAVISVP2,2013-12-26 14:14:00,
2013-12-26 09:19:00,36.7,26.1,30.32,West,270,4.6,11.0,65,0.00,,,0.00,WUHU216DAVISVP2,2013-12-26 14:19:00,
2013-12-26 09:24:00,36.7,25.7,30.32,WSW,257,6.3,11.0,64,0.00,,,0.00,WUHU216DAVISVP2,2013-12-26 14:24:00,
2013-12-26 09:29:00,36.7,26.1,30.33,WSW,250,4.0,11.0,65,0.00,,,0.00,WUHU216DAVISVP2,2013-12-26 14:29:00,
2013-12-26 09:34:00,36.6,26.0,30.33,WSW,251,5.0,11.0,65,0.00,,,0.00,WUHU216DAVISVP2,2013-12-26 14:34:00,
2013-12-26 09:39:00,36.6,25.6,30.33,West,259,9.0,16.0,64,0.00,,,0.00,WUHU216DAVISVP2,2013-12-26 14:39:00,
2013-12-26 09:44:00,36.7,25.4,30.34,West,259,7.1,16.0,63,0.00,,,0.00,WUHU216DAVISVP2,2013-12-26 14:44:00,
2013-12-26 09:49:00,36.7,25.4,30.34,WSW,256,5.0,16.0,63,0.00,,,0.00,WUHU216DAVISVP2,2013-12-26 14:49:00,
2013-12-26 09:54:00,36.7,25.4,30.34,West,278,7.0,15.0,63,0.00,,,0.00,WUHU216DAVISVP2,2013-12-26 14:54:00,
2013-12-26 09:59:00,36.7,25.3,30.34,West,264,7.0,14.0,63,0.00,,,0.00,WUHU216DAVISVP2,2013-12-26 14:59:00,
2013-12-26 10:04:00,36.7,25.3,30.35,West,263,4.3,14.0,63,0.00,,,0.00,WUHU216DAVISVP2,2013-12-26 15:04:00,
2013-12-26 10:09:00,36.7,25.7,30.35,WSW,256,5.4,14.0,64,0.00,,,0.00,WUHU216DAVISVP2,2013-12-26 15:09:00,
2013-12-26 10:14:00,36.7,25.7,30.35,SW,236,2.5,14.0,64,0.00,,,0.00,WUHU216DAVISVP2,2013-12-26 15:14:00,
2013-12-26 10:19:00,36.6,25.9,30.35,WNW,295,6.0,12.0,65,0.00,,,0.00,WUHU216DAVISVP2,2013-12-26 15:19:00,
2013-12-26 10:24:00,36.5,25.5,30.35,WSW,249,5.3,12.0,64,0.00,,,0.00,WUHU216DAVISVP2,2013-12-26 15:24:00,
2013-12-26 10:29:00,36.5,25.9,30.35,West,267,3.2,12.0,65,0.00,,,0.00,WUHU216DAVISVP2,2013-12-26 15:29:00,
2013-12-26 10:34:00,36.4,25.8,30.35,WSW,238,5.0,12.0,65,0.00,,,0.00,WUHU216DAVISVP2,2013-12-26 15:34:00,
2013-12-26 10:39:00,36.3,26.1,30.36,NNW,330,4.0,11.0,66,0.00,,,0.00,WUHU216DAVISVP2,2013-12-26 15:39:00,
2013-12-26 10:44:00,36.3,26.0,30.36,WSW,249,4.7,10.0,66,0.00,,,0.00,WUHU216DAVISVP2,2013-12-26 15:44:00,
2013-12-26 10:49:00,36.3,26.1,30.36,West,263,7.0,10.0,66,0.00,,,0.00,WUHU216DAVISVP2,2013-12-26 15:49:00,
2013-12-26 10:54:00,36.3,25.7,30.36,WSW,255,3.9,9.0,65,0.00,,,0.00,WUHU216DAVISVP2,2013-12-26 15:54:00,
2013-12-26 10:59:00,36.4,26.2,30.36,West,266,5.1,9.0,66,0.00,,,0.00,WUHU216DAVISVP2,2013-12-26 15:59:00,
2013-12-26 11:04:00,36.5,26.7,30.36,WSW,240,3.0,9.0,67,0.00,,,0.00,WUHU216DAVISVP2,2013-12-26 16:04:00,
2013-12-26 11:09:00,36.7,26.5,30.36,WNW,300,4.0,9.0,66,0.00,,,0.00,WUHU216DAVISVP2,2013-12-26 16:09:00,
2013-12-26 11:14:00,36.9,26.7,30.36,West,280,6.0,12.0,66,0.00,,,0.00,WUHU216DAVISVP2,2013-12-26 16:14:00,
2013-12-26 11:19:00,36.9,26.7,30.36,West,273,2.1,13.0,66,0.00,,,0.00,WUHU216DAVISVP2,2013-12-26 16:19:00,
2013-12-26 11:24:00,37.0,26.8,30.36,West,261,4.1,13.0,66,0.00,,,0.00,WUHU216DAVISVP2,2013-12-26 16:24:00,
2013-12-26 11:29:00,37.0,26.8,30.36,WSW,255,4.0,13.0,66,0.00,,,0.00,WUHU216DAVISVP2,2013-12-26 16:29:00,
2013-12-26 11:34:00,37.0,26.8,30.36,WSW,255,6.7,13.0,66,0.00,,,0.00,WUHU216DAVISVP2,2013-12-26 16:34:00,
2013-12-26 11:39:00,37.3,27.0,30.36,WSW,257,2.5,13.0,66,0.00,,,0.00,WUHU216DAVISVP2,2013-12-26 16:39:00,
2013-12-26 11:44:00,37.8,26.7,30.36,SW,229,3.0,12.0,64,0.00,,,0.00,WUHU216DAVISVP2,2013-12-26 16:44:00,
2013-12-26 11:49:00,38.1,25.9,30.35,WSW,258,5.9,14.0,61,0.00,,,0.00,WUHU216DAVISVP2,2013-12-26 16:49:00,
2013-12-26 11:54:00,38.0,26.2,30.35,WSW,253,6.0,14.0,62,0.00,,,0.00,WUHU216DAVISVP2,2013-12-26 16:54:00,
2013-12-26 11:59:00,37.9,25.7,30.35,West,260,6.5,13.0,61,0.00,,,0.00,WUHU216DAVISVP2,2013-12-26 16:59:00,
2013-12-26 12:04:00,37.9,25.7,30.35,WNW,284,10.0,13.0,61,0.00,,,0.00,WUHU216DAVISVP2,2013-12-26 17:04:00,
2013-12-26 12:09:00,38.0,25.8,30.35,WSW,249,5.3,11.0,61,0.00,,,0.00,WUHU216DAVISVP2,2013-12-26 17:09:00,
2013-12-26 12:14:00,38.5,26.3,30.34,West,260,4.4,11.0,61,0.00,,,0.00,WUHU216DAVISVP2,2013-12-26 17:14:00,
2013-12-26 12:19:00,38.7,25.6,30.34,WSW,252,6.0,13.0,59,0.00,,,0.00,WUHU216DAVISVP2,2013-12-26 17:19:00,
2013-12-26 12:24:00,38.8,25.7,30.34,WSW,243,8.0,13.0,59,0.00,,,0.00,WUHU216DAVISVP2,2013-12-26 17:24:00,
2013-12-26 12:29:00,38.7,25.6,30.34,WSW,239,8.0,13.0,59,0.00,,,0.00,WUHU216DAVISVP2,2013-12-26 17:29:00,
2013-12-26 12:34:00,38.7,25.2,30.34,WSW,258,7.1,13.0,58,0.00,,,0.00,WUHU216DAVISVP2,2013-12-26 17:34:00,
2013-12-26 12:39:00,38.9,25.8,30.33,West,278,5.0,13.0,59,0.00,,,0.00,WUHU216DAVISVP2,2013-12-26 17:39:00,
2013-12-26 12:44:00,38.9,25.4,30.33,WNW,283,3.5,13.0,58,0.00,,,0.00,WUHU216DAVISVP2,2013-12-26 17:44:00,
2013-12-26 12:49:00,38.9,25.4,30.33,West,276,8.0,11.0,58,0.00,,,0.00,WUHU216DAVISVP2,2013-12-26 17:49:00,
2013-12-26 12:54:00,38.9,24.9,30.33,West,262,6.0,11.0,57,0.00,,,0.00,WUHU216DAVISVP2,2013-12-26 17:54:00,
2013-12-26 12:59:00,38.9,24.9,30.33,WSW,249,5.0,12.0,57,0.00,,,0.00,WUHU216DAVISVP2,2013-12-26 17:59:00,
2013-12-26 13:04:00,39.0,24.2,30.33,West,281,6.0,12.0,55,0.00,,,0.00,WUHU216DAVISVP2,2013-12-26 18:04:00,
2013-12-26 13:09:00,39.1,24.3,30.33,WSW,239,8.0,12.0,55,0.00,,,0.00,WUHU216DAVISVP2,2013-12-26 18:09:00,
2013-12-26 13:14:00,39.3,24.5,30.33,West,259,4.8,11.0,55,0.00,,,0.00,WUHU216DAVISVP2,2013-12-26 18:14:00,
2013-12-26 13:19:00,39.4,24.1,30.33,West,280,3.6,10.0,54,0.00,,,0.00,WUHU216DAVISVP2,2013-12-26 18:19:00,
2013-12-26 13:24:00,39.7,24.4,30.33,WSW,246,4.0,10.0,54,0.00,,,0.00,WUHU216DAVISVP2,2013-12-26 18:24:00,
2013-12-26 13:29:00,39.7,24.0,30.33,WSW,256,3.0,9.0,53,0.00,,,0.00,WUHU216DAVISVP2,2013-12-26 18:29:00,
2013-12-26 13:34:00,39.9,24.1,30.33,WSW,251,4.0,11.0,53,0.00,,,0.00,WUHU216DAVISVP2,2013-12-26 18:34:00,
2013-12-26 13:39:00,40.1,23.9,30.33,West,263,4.4,11.0,52,0.00,,,0.00,WUHU216DAVISVP2,2013-12-26 18:39:00,
2013-12-26 13:44:00,40.1,24.3,30.33,WSW,242,5.0,10.0,53,0.00,,,0.00,WUHU216DAVISVP2,2013-12-26 18:44:00,
2013-12-26 13:49:00,40.1,23.9,30.33,West,265,2.5,11.0,52,0.00,,,0.00,WUHU216DAVISVP2,2013-12-26 18:49:00,
2013-12-26 13:54:00,40.3,23.6,30.33,West,259,6.0,11.0,51,0.00,,,0.00,WUHU216DAVISVP2,2013-12-26 18:54:00,
2013-12-26 13:59:00,40.3,23.6,30.33,West,267,4.4,10.0,51,0.00,,,0.00,WUHU216DAVISVP2,2013-12-26 18:59:00,
2013-12-26 14:04:00,40.5,23.3,30.33,South,176,4.0,9.0,50,0.00,,,0.00,WUHU216DAVISVP2,2013-12-26 19:04:00,
2013-12-26 14:09:00,40.4,22.7,30.33,NNW,328,7.0,10.0,49,0.00,,,0.00,WUHU216DAVISVP2,2013-12-26 19:09:00,
2013-12-26 14:14:00,40.6,23.4,30.33,WSW,243,6.0,10.0,50,0.00,,,0.00,WUHU216DAVISVP2,2013-12-26 19:14:00,
2013-12-26 14:19:00,40.7,23.0,30.33,West,276,5.0,9.0,49,0.00,,,0.00,WUHU216DAVISVP2,2013-12-26 19:19:00,
2013-12-26 14:24:00,40.9,23.6,30.33,WSW,249,2.0,9.0,50,0.00,,,0.00,WUHU216DAVISVP2,2013-12-26 19:24:00,
2013-12-26 14:29:00,41.1,23.3,30.33,WSW,242,4.0,8.0,49,0.00,,,0.00,WUHU216DAVISVP2,2013-12-26 19:29:00,
2013-12-26 14:34:00,41.1,23.9,30.33,SW,235,4.0,7.0,50,0.00,,,0.00,WUHU216DAVISVP2,2013-12-26 19:34:00,
2013-12-26 14:39:00,41.2,23.9,30.33,West,273,3.0,7.0,50,0.00,,,0.00,WUHU216DAVISVP2,2013-12-26 19:39:00,
2013-12-26 14:44:00,41.1,23.9,30.33,West,281,3.0,7.0,50,0.00,,,0.00,WUHU216DAVISVP2,2013-12-26 19:44:00,
2013-12-26 14:49:00,40.9,23.7,30.33,WSW,247,2.9,7.0,50,0.00,,,0.00,WUHU216DAVISVP2,2013-12-26 19:49:00,
2013-12-26 14:54:00,40.9,23.6,30.33,West,262,1.2,7.0,50,0.00,,,0.00,WUHU216DAVISVP2,2013-12-26 19:54:00,
2013-12-26 14:59:00,40.9,23.6,30.33,West,267,5.0,7.0,50,0.00,,,0.00,WUHU216DAVISVP2,2013-12-26 19:59:00,
2013-12-26 15:04:00,41.0,23.2,30.33,West,281,7.0,7.0,49,0.00,,,0.00,WUHU216DAVISVP2,2013-12-26 20:04:00,
2013-12-26 15:09:00,40.8,23.5,30.33,WNW,289,1.5,8.0,50,0.00,,,0.00,WUHU216DAVISVP2,2013-12-26 20:09:00,
2013-12-26 15:14:00,41.2,22.9,30.33,West,268,4.0,8.0,48,0.00,,,0.00,WUHU216DAVISVP2,2013-12-26 20:14:00,
2013-12-26 15:19:00,41.4,23.1,30.33,WSW,258,4.4,8.0,48,0.00,,,0.00,WUHU216DAVISVP2,2013-12-26 20:19:00,
2013-12-26 15:24:00,41.3,22.5,30.33,WSW,251,5.1,9.0,47,0.00,,,0.00,WUHU216DAVISVP2,2013-12-26 20:24:00,
2013-12-26 15:29:00,41.3,23.0,30.33,WSW,247,1.6,9.0,48,0.00,,,0.00,WUHU216DAVISVP2,2013-12-26 20:29:00,
2013-12-26 15:34:00,41.5,23.2,30.33,West,270,3.0,8.0,48,0.00,,,0.00,WUHU216DAVISVP2,2013-12-26 20:34:00,
2013-12-26 15:39:00,41.5,23.2,30.33,SW,225,7.0,8.0,48,0.00,,,0.00,WUHU216DAVISVP2,2013-12-26 20:39:00,
2013-12-26 15:44:00,41.5,22.7,30.33,WSW,256,2.6,7.0,47,0.00,,,0.00,WUHU216DAVISVP2,2013-12-26 20:44:00,
2013-12-26 15:49:00,41.5,22.2,30.33,WSW,253,5.0,9.0,46,0.00,,,0.00,WUHU216DAVISVP2,2013-12-26 20:49:00,
2013-12-26 15:54:00,41.4,21.5,30.34,West,281,5.0,9.0,45,0.00,,,0.00,WUHU216DAVISVP2,2013-12-26 20:54:00,
2013-12-26 15:59:00,41.1,21.2,30.34,WNW,291,2.2,9.0,45,0.00,,,0.00,WUHU216DAVISVP2,2013-12-26 20:59:00,
2013-12-26 16:04:00,41.2,22.4,30.33,SW,235,3.0,8.0,47,0.00,,,0.00,WUHU216DAVISVP2,2013-12-26 21:04:00,
2013-12-26 16:09:00,41.3,22.1,30.34,WSW,249,2.3,8.0,46,0.00,,,0.00,WUHU216DAVISVP2,2013-12-26 21:09:00,
2013-12-26 16:14:00,41.2,22.4,30.33,WSW,240,1.5,5.0,47,0.00,,,0.00,WUHU216DAVISVP2,2013-12-26 21:14:00,
2013-12-26 16:19:00,41.1,21.2,30.33,West,264,4.0,6.0,45,0.00,,,0.00,WUHU216DAVISVP2,2013-12-26 21:19:00,
2013-12-26 16:24:00,40.7,21.4,30.33,WNW,295,3.0,6.0,46,0.00,,,0.00,WUHU216DAVISVP2,2013-12-26 21:24:00,
2013-12-26 16:29:00,40.4,21.7,30.33,West,268,1.2,6.0,47,0.00,,,0.00,WUHU216DAVISVP2,2013-12-26 21:29:00,
2013-12-26 16:34:00,40.5,21.7,30.33,WSW,257,1.6,6.0,47,0.00,,,0.00,WUHU216DAVISVP2,2013-12-26 21:34:00,
2013-12-26 16:39:00,40.2,21.5,30.33,SE,146,1.0,5.0,47,0.00,,,0.00,WUHU216DAVISVP2,2013-12-26 21:39:00,
2013-12-26 16:44:00,39.6,21.4,30.34,SE,124,1.0,4.0,48,0.00,,,0.00,WUHU216DAVISVP2,2013-12-26 21:44:00,
2013-12-26 16:49:00,38.9,21.3,30.34,WSW,248,1.8,4.0,49,0.00,,,0.00,WUHU216DAVISVP2,2013-12-26 21:49:00,
2013-12-26 16:54:00,38.4,21.8,30.34,SW,235,1.1,3.0,51,0.00,,,0.00,WUHU216DAVISVP2,2013-12-26 21:54:00,
2013-12-26 16:59:00,38.1,21.5,30.34,SW,218,1.0,3.0,51,0.00,,,0.00,WUHU216DAVISVP2,2013-12-26 21:59:00,
2013-12-26 17:04:00,37.5,21.4,30.34,SSW,207,0.0,3.0,52,0.00,,,0.00,WUHU216DAVISVP2,2013-12-26 22:04:00,
2013-12-26 17:09:00,36.8,21.2,30.34,SSW,207,0.0,3.0,53,0.00,,,0.00,WUHU216DAVISVP2,2013-12-26 22:09:00,
2013-12-26 17:14:00,36.0,21.4,30.35,SSW,207,0.0,2.0,55,0.00,,,0.00,WUHU216DAVISVP2,2013-12-26 22:14:00,
2013-12-26 17:19:00,35.2,21.5,30.35,SSW,207,0.0,1.0,57,0.00,,,0.00,WUHU216DAVISVP2,2013-12-26 22:19:00,
2013-12-26 17:24:00,34.7,21.5,30.34,SSW,207,0.0,1.0,58,0.00,,,0.00,WUHU216DAVISVP2,2013-12-26 22:24:00,
2013-12-26 17:29:00,34.2,21.4,30.35,SW,223,1.0,1.0,59,0.00,,,0.00,WUHU216DAVISVP2,2013-12-26 22:29:00,
2013-12-26 17:34:00,33.6,21.6,30.35,SW,224,0.0,1.0,61,0.00,,,0.00,WUHU216DAVISVP2,2013-12-26 22:34:00,
2013-12-26 17:35:00,33.5,21.5,30.35,SW,224,0.0,1.0,61,0.00,,,0.00,WUHU216DAVISVP2,2013-12-26 22:35:00,
2013-12-26 17:40:00,32.7,22.3,30.35,SW,224,0.0,1.0,65,0.00,,,0.00,WUHU216DAVISVP2,2013-12-26 22:40:00,
2013-12-26 17:45:00,31.7,22.0,30.35,South,186,0.0,1.0,67,0.00,,,0.00,WUHU216DAVISVP2,2013-12-26 22:45:00,
2013-12-26 17:50:00,31.4,22.4,30.35,South,174,0.0,0.0,69,0.00,,,0.00,WUHU216DAVISVP2,2013-12-26 22:50:00,
2013-12-26 17:55:00,31.0,22.4,30.36,South,174,0.0,0.0,70,0.00,,,0.00,WUHU216DAVISVP2,2013-12-26 22:55:00,
2013-12-26 18:00:00,30.6,22.4,30.36,SE,132,1.0,1.0,71,0.00,,,0.00,WUHU216DAVISVP2,2013-12-26 23:00:00,
2013-12-26 18:05:00,30.4,22.2,30.36,SW,229,0.0,1.0,71,0.00,,,0.00,WUHU216DAVISVP2,2013-12-26 23:05:00,
2013-12-26 18:10:00,29.7,21.8,30.36,SW,229,0.0,1.0,72,0.00,,,0.00,WUHU216DAVISVP2,2013-12-26 23:10:00,
2013-12-26 18:15:00,29.2,22.0,30.37,South,184,0.0,1.0,74,0.00,,,0.00,WUHU216DAVISVP2,2013-12-26 23:15:00,
2013-12-26 18:20:00,28.9,22.0,30.37,South,184,0.0,1.0,75,0.00,,,0.00,WUHU216DAVISVP2,2013-12-26 23:20:00,
2013-12-26 18:25:00,28.4,21.8,30.38,South,184,0.0,1.0,76,0.00,,,0.00,WUHU216DAVISVP2,2013-12-26 23:25:00,
2013-12-26 18:30:00,27.8,21.6,30.38,South,184,0.0,1.0,77,0.00,,,0.00,WUHU216DAVISVP2,2013-12-26 23:30:00,
2013-12-26 18:35:00,27.5,21.6,30.38,South,184,0.0,0.0,78,0.00,,,0.00,WUHU216DAVISVP2,2013-12-26 23:35:00,
2013-12-26 18:36:00,27.5,21.6,30.38,South,184,0.0,0.0,78,0.00,,,0.00,WUHU216DAVISVP2,2013-12-26 23:36:00,
2013-12-26 18:41:00,27.4,21.8,30.38,South,184,0.0,0.0,79,0.00,,,0.00,WUHU216DAVISVP2,2013-12-26 23:41:00,
2013-12-26 18:42:00,27.3,21.7,30.38,South,184,0.0,0.0,79,0.00,,,0.00,WUHU216DAVISVP2,2013-12-26 23:42:00,
2013-12-26 18:47:00,27.2,21.9,30.38,South,184,0.0,0.0,80,0.00,,,0.00,WUHU216DAVISVP2,2013-12-26 23:47:00,
2013-12-26 18:49:00,27.1,22.0,30.38,South,184,0.0,0.0,81,0.00,,,0.00,WUHU216DAVISVP2,2013-12-26 23:49:00,
2013-12-26 18:54:00,26.6,21.3,30.39,South,184,0.0,0.0,80,0.00,,,0.00,WUHU216DAVISVP2,2013-12-26 23:54:00,
2013-12-26 18:59:00,26.3,21.5,30.39,South,184,0.0,0.0,82,0.00,,,0.00,WUHU216DAVISVP2,2013-12-26 23:59:00,
2013-12-26 19:04:00,26.4,21.9,30.39,South,184,0.0,0.0,83,0.00,,,0.00,WUHU216DAVISVP2,2013-12-27 00:04:00,
2013-12-26 19:09:00,26.2,21.7,30.39,South,184,0.0,0.0,83,0.00,,,0.00,WUHU216DAVISVP2,2013-12-27 00:09:00,
2013-12-26 19:14:00,26.2,21.7,30.39,South,184,0.0,0.0,83,0.00,,,0.00,WUHU216DAVISVP2,2013-12-27 00:14:00,
2013-12-26 19:19:00,26.1,21.6,30.40,South,184,0.0,0.0,83,0.00,,,0.00,WUHU216DAVISVP2,2013-12-27 00:19:00,
2013-12-26 19:24:00,25.8,21.6,30.40,South,184,0.0,0.0,84,0.00,,,0.00,WUHU216DAVISVP2,2013-12-27 00:24:00,
2013-12-26 19:29:00,25.7,21.8,30.40,South,184,0.0,0.0,85,0.00,,,0.00,WUHU216DAVISVP2,2013-12-27 00:29:00,
2013-12-26 19:34:00,25.7,21.8,30.40,South,184,0.0,0.0,85,0.00,,,0.00,WUHU216DAVISVP2,2013-12-27 00:34:00,
2013-12-26 19:39:00,25.7,21.8,30.40,South,185,0.0,0.0,85,0.00,,,0.00,WUHU216DAVISVP2,2013-12-27 00:39:00,
2013-12-26 19:44:00,25.6,21.7,30.40,South,184,0.0,0.0,85,0.00,,,0.00,WUHU216DAVISVP2,2013-12-27 00:44:00,
2013-12-26 19:49:00,25.5,21.9,30.40,South,184,0.0,0.0,86,0.00,,,0.00,WUHU216DAVISVP2,2013-12-27 00:49:00,
2013-12-26 19:54:00,25.5,21.9,30.40,South,184,0.0,0.0,86,0.00,,,0.00,WUHU216DAVISVP2,2013-12-27 00:54:00,
2013-12-26 19:59:00,25.1,21.2,30.40,South,184,0.0,0.0,85,0.00,,,0.00,WUHU216DAVISVP2,2013-12-27 00:59:00,
2013-12-26 20:04:00,24.6,21.0,30.40,South,184,0.0,0.0,86,0.00,,,0.00,WUHU216DAVISVP2,2013-12-27 01:04:00,
2013-12-26 20:09:00,24.4,21.3,30.41,South,184,0.0,0.0,88,0.00,,,0.00,WUHU216DAVISVP2,2013-12-27 01:09:00,
2013-12-26 20:14:00,24.4,21.3,30.40,South,184,0.0,0.0,88,0.00,,,0.00,WUHU216DAVISVP2,2013-12-27 01:14:00,
2013-12-26 20:19:00,24.3,21.5,30.40,South,185,0.0,0.0,89,0.00,,,0.00,WUHU216DAVISVP2,2013-12-27 01:19:00,
2013-12-26 20:24:00,24.2,21.4,30.40,South,184,0.0,0.0,89,0.00,,,0.00,WUHU216DAVISVP2,2013-12-27 01:24:00,
2013-12-26 20:29:00,23.9,20.8,30.41,South,184,0.0,0.0,88,0.00,,,0.00,WUHU216DAVISVP2,2013-12-27 01:29:00,
2013-12-26 20:34:00,24.0,21.2,30.41,South,184,0.0,0.0,89,0.00,,,0.00,WUHU216DAVISVP2,2013-12-27 01:34:00,
2013-12-26 20:39:00,24.0,21.2,30.40,South,184,0.0,0.0,89,0.00,,,0.00,WUHU216DAVISVP2,2013-12-27 01:39:00,
2013-12-26 20:44:00,24.1,21.5,30.40,South,184,0.0,0.0,90,0.00,,,0.00,WUHU216DAVISVP2,2013-12-27 01:44:00,
2013-12-26 20:49:00,24.2,21.4,30.40,South,184,0.0,0.0,89,0.00,,,0.00,WUHU216DAVISVP2,2013-12-27 01:49:00,
2013-12-26 20:54:00,24.2,21.4,30.40,South,184,0.0,0.0,89,0.00,,,0.00,WUHU216DAVISVP2,2013-12-27 01:54:00,
2013-12-26 20:59:00,24.0,21.2,30.40,South,185,0.0,0.0,89,0.00,,,0.00,WUHU216DAVISVP2,2013-12-27 01:59:00,
2013-12-26 21:04:00,23.9,21.1,30.41,South,184,0.0,0.0,89,0.00,,,0.00,WUHU216DAVISVP2,2013-12-27 02:04:00,
2013-12-26 21:09:00,23.9,21.1,30.41,South,185,0.0,0.0,89,0.00,,,0.00,WUHU216DAVISVP2,2013-12-27 02:09:00,
2013-12-26 21:14:00,23.7,20.9,30.41,South,185,0.0,0.0,89,0.00,,,0.00,WUHU216DAVISVP2,2013-12-27 02:14:00,
2013-12-26 21:19:00,23.3,20.3,30.40,South,184,0.0,0.0,88,0.00,,,0.00,WUHU216DAVISVP2,2013-12-27 02:19:00,
2013-12-26 21:24:00,23.1,20.3,30.41,South,184,0.0,0.0,89,0.00,,,0.00,WUHU216DAVISVP2,2013-12-27 02:24:00,
2013-12-26 21:29:00,23.1,20.6,30.41,South,184,0.0,0.0,90,0.00,,,0.00,WUHU216DAVISVP2,2013-12-27 02:29:00,
2013-12-26 21:34:00,23.3,21.0,30.41,South,184,0.0,0.0,91,0.00,,,0.00,WUHU216DAVISVP2,2013-12-27 02:34:00,
2013-12-26 21:39:00,23.2,20.7,30.41,South,184,0.0,0.0,90,0.00,,,0.00,WUHU216DAVISVP2,2013-12-27 02:39:00,
2013-12-26 21:44:00,23.2,20.9,30.41,South,184,0.0,0.0,91,0.00,,,0.00,WUHU216DAVISVP2,2013-12-27 02:44:00,
2013-12-26 21:49:00,23.1,20.8,30.41,South,185,0.0,0.0,91,0.00,,,0.00,WUHU216DAVISVP2,2013-12-27 02:49:00,
2013-12-26 21:54:00,23.0,20.7,30.41,South,184,0.0,0.0,91,0.00,,,0.00,WUHU216DAVISVP2,2013-12-27 02:54:00,
2013-12-26 21:59:00,22.8,20.5,30.41,South,184,0.0,0.0,91,0.00,,,0.00,WUHU216DAVISVP2,2013-12-27 02:59:00,
2013-12-26 22:04:00,22.5,20.2,30.41,South,184,0.0,0.0,91,0.00,,,0.00,WUHU216DAVISVP2,2013-12-27 03:04:00,
2013-12-26 22:09:00,22.5,20.5,30.41,South,184,0.0,0.0,92,0.00,,,0.00,WUHU216DAVISVP2,2013-12-27 03:09:00,
2013-12-26 22:14:00,22.8,20.8,30.41,South,184,0.0,0.0,92,0.00,,,0.00,WUHU216DAVISVP2,2013-12-27 03:14:00,
2013-12-26 22:19:00,22.8,20.8,30.41,South,185,0.0,0.0,92,0.00,,,0.00,WUHU216DAVISVP2,2013-12-27 03:19:00,
2013-12-26 22:24:00,22.5,20.5,30.41,South,184,0.0,0.0,92,0.00,,,0.00,WUHU216DAVISVP2,2013-12-27 03:24:00,
2013-12-26 22:29:00,22.2,20.2,30.41,South,184,0.0,0.0,92,0.00,,,0.00,WUHU216DAVISVP2,2013-12-27 03:29:00,
2013-12-26 22:34:00,22.2,20.2,30.41,South,184,0.0,0.0,92,0.00,,,0.00,WUHU216DAVISVP2,2013-12-27 03:34:00,
2013-12-26 22:39:00,22.3,20.3,30.41,South,184,0.0,0.0,92,0.00,,,0.00,WUHU216DAVISVP2,2013-12-27 03:39:00,
2013-12-26 22:44:00,22.1,20.1,30.41,South,184,0.0,0.0,92,0.00,,,0.00,WUHU216DAVISVP2,2013-12-27 03:44:00,
2013-12-26 22:49:00,22.0,20.0,30.42,South,184,0.0,0.0,92,0.00,,,0.00,WUHU216DAVISVP2,2013-12-27 03:49:00,
2013-12-26 22:54:00,22.0,20.0,30.42,South,185,0.0,0.0,92,0.00,,,0.00,WUHU216DAVISVP2,2013-12-27 03:54:00,
2013-12-26 22:59:00,22.0,20.2,30.42,South,184,0.0,0.0,93,0.00,,,0.00,WUHU216DAVISVP2,2013-12-27 03:59:00,
2013-12-26 23:04:00,22.0,20.2,30.42,South,184,0.0,0.0,93,0.00,,,0.00,WUHU216DAVISVP2,2013-12-27 04:04:00,
2013-12-26 23:09:00,21.9,20.1,30.42,South,184,0.0,0.0,93,0.00,,,0.00,WUHU216DAVISVP2,2013-12-27 04:09:00,
2013-12-26 23:14:00,21.9,20.1,30.42,South,184,0.0,0.0,93,0.00,,,0.00,WUHU216DAVISVP2,2013-12-27 04:14:00,
2013-12-26 23:19:00,21.9,20.1,30.42,South,184,0.0,0.0,93,0.00,,,0.00,WUHU216DAVISVP2,2013-12-27 04:19:00,
2013-12-26 23:24:00,21.9,20.1,30.42,South,184,0.0,0.0,93,0.00,,,0.00,WUHU216DAVISVP2,2013-12-27 04:24:00,
2013-12-26 23:29:00,21.9,20.1,30.42,South,185,0.0,0.0,93,0.00,,,0.00,WUHU216DAVISVP2,2013-12-27 04:29:00,
2013-12-26 23:34:00,21.4,19.4,30.42,South,185,0.0,0.0,92,0.00,,,0.00,WUHU216DAVISVP2,2013-12-27 04:34:00,
2013-12-26 23:39:00,21.4,19.6,30.42,South,184,0.0,0.0,93,0.00,,,0.00,WUHU216DAVISVP2,2013-12-27 04:39:00,
2013-12-26 23:44:00,21.4,19.7,30.42,South,184,0.0,0.0,93,0.00,,,0.00,WUHU216DAVISVP2,2013-12-27 04:44:00,
2013-12-26 23:49:00,21.1,19.4,30.42,South,184,0.0,0.0,93,0.00,,,0.00,WUHU216DAVISVP2,2013-12-27 04:49:00,
2013-12-26 23:54:00,21.1,19.3,30.42,South,184,0.0,0.0,93,0.00,,,0.00,WUHU216DAVISVP2,2013-12-27 04:54:00,
2013-12-26 23:59:00,21.3,19.5,30.42,South,184,0.0,0.0,93,0.00,,,0.00,WUHU216DAVISVP2,2013-12-27 04:59:00,